Terminal Aerodrome Forecast
Issued by NWS

Home | Current Version | Previous Version | Text Only | Print | Product List | Glossary On
Versions: 1 2 3 4 5 6 7 8 9 10 11 12 13 14 15
000
FTUS43 KIND 230600 AAA
TAFBMG
TAF AMD
KBMG 230648Z 2307/2406 00000KT 3SM BR SKC
     FM231200 09005KT P6SM SKC
     FM240000 00000KT P6SM SKC
      AMD LTD TO CLD VIS AND WIND TIL 231300=

USA.gov is the U.S. government's official web portal to all federal, state and local government web resources and services.